createdAt,value
2018-10-02T05:59:55.000Z,7.10
2018-10-02T06:04:58.306Z,7.30
2018-10-02T06:10:01.617Z,7.50
2018-10-02T06:15:04.880Z,7.50
2018-10-02T06:20:08.021Z,7.60
2018-10-02T06:25:11.173Z,7.60
2018-10-02T06:30:14.346Z,7.60
2018-10-02T06:35:17.476Z,7.70
2018-10-02T06:40:20.677Z,7.70
2018-10-02T06:45:23.842Z,7.70
2018-10-02T06:50:27.024Z,7.80
2018-10-02T06:55:30.219Z,7.80
2018-10-02T07:00:33.416Z,7.90
2018-10-02T07:05:36.592Z,7.90
2018-10-02T07:10:39.951Z,8.00
2018-10-02T07:15:43.207Z,8.10
2018-10-02T07:20:46.566Z,8.10
2018-10-02T07:25:49.720Z,8.10
2018-10-02T07:30:53.019Z,8.00
2018-10-02T07:35:56.256Z,8.00
2018-10-02T07:40:59.508Z,8.00
2018-10-02T07:46:02.904Z,8.00
2018-10-02T07:51:06.419Z,8.10
2018-10-02T07:56:09.652Z,8.00
2018-10-02T08:01:12.887Z,8.20
2018-10-02T08:06:16.201Z,8.30
2018-10-02T08:11:19.426Z,8.50
2018-10-02T08:16:22.607Z,8.50
2018-10-02T08:21:25.798Z,8.60
2018-10-02T08:26:29.023Z,8.80
2018-10-02T08:31:32.242Z,8.80
2018-10-02T08:36:35.444Z,9.00
2018-10-02T08:41:38.880Z,9.40
2018-10-02T08:46:42.082Z,9.40
2018-10-02T08:51:45.354Z,9.40
2018-10-02T09:02:17.095Z,9.60
2018-10-02T09:07:20.295Z,9.50
2018-10-02T09:12:23.544Z,9.70
2018-10-02T09:17:26.755Z,9.70
2018-10-02T09:22:30.112Z,9.70
2018-10-02T09:27:33.403Z,9.90
2018-10-02T09:32:42.024Z,9.90
2018-10-02T09:37:50.640Z,9.90
2018-10-02T09:42:59.433Z,9.90
2018-10-02T09:48:07.728Z,9.90
2018-10-02T09:53:10.955Z,9.90
2018-10-02T09:58:14.371Z,10.10
2018-10-02T10:03:17.644Z,10.20
2018-10-02T10:08:20.875Z,10.30
2018-10-02T10:13:24.071Z,10.30
2018-10-02T10:18:27.263Z,10.40
2018-10-02T10:23:30.483Z,10.50
2018-10-02T10:28:33.751Z,10.40
2018-10-02T10:33:36.918Z,10.40
2018-10-02T10:38:40.151Z,10.40
2018-10-02T10:43:43.411Z,10.60
2018-10-02T10:48:46.599Z,10.60
2018-10-02T10:53:49.819Z,10.60
2018-10-02T10:58:53.026Z,10.80
2018-10-02T11:03:56.276Z,11.00
2018-10-02T11:08:59.470Z,11.00
2018-10-02T11:14:02.709Z,11.00
2018-10-02T11:19:05.919Z,11.00
2018-10-02T11:24:09.142Z,11.20
2018-10-02T11:29:12.290Z,11.30
2018-10-02T11:34:15.466Z,11.40
2018-10-02T11:39:18.735Z,11.40
2018-10-02T11:44:22.272Z,11.40
2018-10-02T11:49:25.503Z,11.50
2018-10-02T11:54:28.807Z,11.60
2018-10-02T11:59:32.005Z,11.60
2018-10-02T12:04:35.187Z,11.60
2018-10-02T12:09:38.371Z,11.70
2018-10-02T12:14:41.598Z,11.60
2018-10-02T12:19:44.877Z,11.80
2018-10-02T12:24:48.412Z,11.80
2018-10-02T12:29:51.585Z,11.90
2018-10-02T12:34:54.755Z,11.90
2018-10-02T12:39:58.266Z,12.00
2018-10-02T12:45:01.487Z,12.20
2018-10-02T12:50:05.051Z,12.50
2018-10-02T12:55:08.437Z,12.80
2018-10-02T13:00:11.610Z,13.10
2018-10-02T13:05:14.797Z,13.20
2018-10-02T13:10:18.063Z,13.70
2018-10-02T13:15:21.315Z,13.90
2018-10-02T13:20:24.561Z,14.30
2018-10-02T13:25:27.797Z,14.80
2018-10-02T13:30:30.879Z,14.80
2018-10-02T13:35:34.415Z,14.80
2018-10-02T13:40:37.736Z,14.90
2018-10-02T13:45:40.893Z,14.80
2018-10-02T13:50:44.151Z,15.20
2018-10-02T13:55:47.235Z,15.30
2018-10-02T14:00:50.398Z,15.60
2018-10-02T14:05:53.607Z,15.50
2018-10-02T14:10:56.811Z,15.30
2018-10-02T14:16:00.032Z,15.10
2018-10-02T14:21:03.251Z,14.70
2018-10-02T14:26:06.508Z,14.40
2018-10-02T14:31:09.886Z,14.30
2018-10-02T14:36:13.099Z,14.30
2018-10-02T14:41:16.325Z,14.40
2018-10-02T14:46:19.515Z,14.30
2018-10-02T14:51:22.684Z,14.60
2018-10-02T14:56:25.875Z,14.90
2018-10-02T15:01:29.074Z,15.30
2018-10-02T15:06:32.223Z,15.20
2018-10-02T15:11:35.419Z,14.90
2018-10-02T15:16:38.612Z,14.80
2018-10-02T15:21:41.875Z,15.10
2018-10-02T15:26:45.094Z,15.40
2018-10-02T15:31:48.398Z,15.30
2018-10-02T15:36:51.543Z,15.10
2018-10-02T15:41:54.751Z,14.80
2018-10-02T15:46:57.958Z,14.80
2018-10-02T15:52:01.167Z,14.90
2018-10-02T15:57:04.396Z,14.80
2018-10-02T16:02:07.784Z,14.80
2018-10-02T16:07:11.303Z,14.80
2018-10-02T16:12:14.560Z,14.60
2018-10-02T16:17:17.787Z,14.40
2018-10-02T16:22:21.195Z,14.20
2018-10-02T16:27:24.652Z,14.10
2018-10-02T16:32:27.923Z,14.30
2018-10-02T16:37:31.381Z,14.40
2018-10-02T16:42:34.666Z,14.40
2018-10-02T16:47:37.981Z,14.20
2018-10-02T16:52:41.304Z,14.00
2018-10-02T16:57:44.939Z,13.80
2018-10-02T17:02:48.158Z,13.70
2018-10-02T17:07:51.435Z,13.40
2018-10-02T17:12:54.634Z,13.20
2018-10-02T17:17:57.835Z,13.00
2018-10-02T17:23:01.055Z,12.80
2018-10-02T17:28:04.259Z,12.70
2018-10-02T17:33:07.472Z,12.60
2018-10-02T17:38:10.691Z,12.40
2018-10-02T17:43:13.903Z,12.30
2018-10-02T17:48:17.096Z,12.20
2018-10-02T17:55:27.541Z,12.00
2018-10-02T18:00:30.735Z,11.90
2018-10-02T18:05:33.937Z,11.80
2018-10-02T18:10:37.145Z,11.70
2018-10-02T18:15:40.352Z,11.70
2018-10-02T18:20:43.641Z,11.60
2018-10-02T18:25:46.859Z,11.50
2018-10-02T18:30:50.197Z,11.40
2018-10-02T18:35:53.538Z,11.30
2018-10-02T18:40:56.865Z,11.40
2018-10-02T18:46:00.149Z,11.30
2018-10-02T18:51:03.337Z,11.10
2018-10-02T18:56:06.584Z,11.10
2018-10-02T19:01:09.787Z,11.10
2018-10-02T19:06:13.117Z,11.00
2018-10-02T19:11:21.567Z,10.90
2018-10-02T19:16:28.885Z,10.70
2018-10-02T19:21:32.091Z,10.80
2018-10-02T19:26:35.333Z,10.80
2018-10-02T19:31:43.979Z,11.10
2018-10-02T19:36:47.180Z,11.30
2018-10-02T19:41:50.911Z,11.30
2018-10-02T19:46:58.486Z,11.10
2018-10-02T19:52:10.598Z,10.80
2018-10-02T19:57:16.686Z,10.70
2018-10-02T20:02:19.875Z,10.90
2018-10-02T20:07:23.408Z,10.90
2018-10-02T20:12:26.531Z,10.50
2018-10-02T20:17:30.266Z,10.50
2018-10-02T20:22:33.504Z,10.40
2018-10-02T20:27:36.791Z,10.30
2018-10-02T20:32:40.281Z,10.10
2018-10-02T20:37:43.752Z,10.00
2018-10-02T20:42:47.440Z,10.10
2018-10-02T20:47:50.639Z,9.90
2018-10-02T20:52:54.243Z,9.90
2018-10-02T20:57:57.426Z,9.80
2018-10-02T21:03:00.608Z,9.60
2018-10-02T21:08:03.801Z,9.60
2018-10-02T21:13:06.991Z,9.50
2018-10-02T21:18:10.202Z,9.40
2018-10-02T21:23:13.394Z,9.20
2018-10-02T21:28:16.587Z,9.20
2018-10-02T21:33:19.786Z,9.10
2018-10-02T21:38:23.020Z,9.20
2018-10-02T21:43:26.272Z,9.00
2018-10-02T21:48:29.491Z,9.00
2018-10-02T21:53:32.731Z,9.00
2018-10-02T21:58:36.070Z,9.10
2018-10-02T22:03:40.223Z,8.90
2018-10-02T22:08:43.417Z,8.80
2018-10-02T22:13:46.678Z,8.80
2018-10-02T22:18:49.857Z,8.90
2018-10-02T22:23:53.094Z,8.90
2018-10-02T22:28:56.324Z,9.00
2018-10-02T22:33:59.491Z,9.00
2018-10-02T22:39:02.716Z,9.00
2018-10-02T22:44:06.191Z,8.90
2018-10-02T22:49:09.346Z,9.00
2018-10-02T22:54:12.511Z,9.10
2018-10-02T22:59:15.775Z,9.10
2018-10-02T23:04:18.806Z,9.00
2018-10-02T23:09:22.007Z,9.00
2018-10-02T23:14:25.191Z,9.10
2018-10-02T23:19:28.387Z,9.20
2018-10-02T23:24:31.611Z,9.10
2018-10-02T23:29:34.975Z,9.30
2018-10-02T23:34:38.286Z,9.40
2018-10-02T23:39:41.541Z,9.50
2018-10-02T23:44:44.811Z,9.50
2018-10-02T23:49:47.997Z,9.30
2018-10-02T23:54:51.207Z,9.20
2018-10-02T23:59:54.447Z,9.00
